Blean, United Kingdom
Current Conditions -  °F | °C
As of 5:20 AM on Thursday 23 Oct 2014 (Local Time) from EGMC Reporting Station
Broken Clouds Broken Clouds  
Wind Chill: 12°   Ceiling: 3300
Heat Index: 12°   Visibility: 6mi
Dew Point:   Wind: 8mph
Humidity: 77%   Direction: 240°WSW
Pressure: 30.15"   Gusts: NA
Location:  51.31°N, 1.04°E
Report Text: EGMC 230420Z 24007KT 9999 FEW030 BKN033 12/08 Q1021
Loading
Personal Weather Stations






























Interactive Weather Map
Tropical Storm Tracking
New forecast layout! Learn more

10-Day Weather Forecast

Advertisements
Track Severe Weather on mobile